createdAt,value
2023-04-19T00:01:32.242Z,4.29
2023-04-19T00:04:20.607Z,4.33
2023-04-19T00:07:07.950Z,4.35
2023-04-19T00:09:54.499Z,4.37
2023-04-19T00:12:40.974Z,4.38
2023-04-19T00:15:27.980Z,4.38
2023-04-19T00:18:14.678Z,4.40
2023-04-19T00:21:02.266Z,4.42
2023-04-19T00:23:49.012Z,4.44
2023-04-19T00:26:35.423Z,4.44
2023-04-19T00:29:22.665Z,4.43
2023-04-19T00:32:09.389Z,4.44
2023-04-19T00:34:57.545Z,4.44
2023-04-19T00:37:44.517Z,4.44
2023-04-19T00:40:33.496Z,4.43
2023-04-19T00:43:20.900Z,4.41
2023-04-19T00:46:07.734Z,4.40
2023-04-19T00:48:55.104Z,4.38
2023-04-19T00:51:42.011Z,4.39
2023-04-19T00:54:30.864Z,4.37
2023-04-19T00:57:17.825Z,4.35
2023-04-19T01:00:09.465Z,4.33
2023-04-19T01:02:56.279Z,4.28
2023-04-19T01:05:42.651Z,4.23
2023-04-19T01:08:32.334Z,4.17
2023-04-19T01:11:18.615Z,4.11
2023-04-19T01:14:05.173Z,4.06
2023-04-19T01:16:52.527Z,3.97
2023-04-19T01:19:39.197Z,3.94
2023-04-19T01:22:27.703Z,3.87
2023-04-19T01:25:14.071Z,3.82
2023-04-19T01:28:02.533Z,3.78
2023-04-19T01:30:53.470Z,3.76
2023-04-19T01:33:40.100Z,3.72
2023-04-19T01:36:29.078Z,3.68
2023-04-19T01:39:16.141Z,3.64
2023-04-19T01:42:02.513Z,3.62
2023-04-19T01:44:49.986Z,3.59
2023-04-19T01:47:36.652Z,3.57
2023-04-19T01:50:23.153Z,3.55
2023-04-19T01:53:11.413Z,3.52
2023-04-19T01:55:57.941Z,3.48
2023-04-19T01:58:46.839Z,3.45
2023-04-19T02:01:35.182Z,3.43
2023-04-19T02:04:22.800Z,3.40
2023-04-19T02:07:09.139Z,3.37
2023-04-19T02:09:55.326Z,3.35
2023-04-19T02:12:42.425Z,3.33
2023-04-19T02:15:30.522Z,3.32
2023-04-19T02:18:17.933Z,3.30
2023-04-19T02:21:09.083Z,3.29
2023-04-19T02:23:55.415Z,3.27
2023-04-19T02:26:41.675Z,3.22
2023-04-19T02:29:27.860Z,3.20
2023-04-19T02:32:14.312Z,3.18
2023-04-19T02:35:00.967Z,3.17
2023-04-19T02:37:48.856Z,3.17
2023-04-19T02:40:35.407Z,3.15
2023-04-19T02:43:21.872Z,3.15
2023-04-19T02:46:09.922Z,3.13
2023-04-19T02:48:56.373Z,3.11
2023-04-19T02:51:42.762Z,3.09
2023-04-19T02:54:29.976Z,3.06
2023-04-19T02:57:16.620Z,3.08
2023-04-19T03:00:06.146Z,3.09
2023-04-19T03:02:53.137Z,3.11
2023-04-19T03:05:40.413Z,3.10
2023-04-19T03:08:27.081Z,3.11
2023-04-19T03:11:17.268Z,3.10
2023-04-19T03:14:03.877Z,3.07
2023-04-19T03:16:50.477Z,3.06
2023-04-19T03:19:38.738Z,3.07
2023-04-19T03:22:25.466Z,3.09
2023-04-19T03:25:13.700Z,3.09
2023-04-19T03:28:02.394Z,3.09
2023-04-19T03:31:08.634Z,3.09
2023-04-19T03:33:55.745Z,3.11
2023-04-19T03:36:46.734Z,3.08
2023-04-19T03:39:35.359Z,3.17
2023-04-19T03:42:23.502Z,3.21
2023-04-19T03:45:31.183Z,3.22
2023-04-19T03:48:17.712Z,3.25
2023-04-19T03:51:07.058Z,3.30
2023-04-19T03:53:54.266Z,3.36
2023-04-19T03:56:41.240Z,3.44
2023-04-19T03:59:28.337Z,3.51
2023-04-19T04:02:15.346Z,3.56
2023-04-19T04:05:03.993Z,3.61
2023-04-19T04:07:51.259Z,3.68
2023-04-19T04:10:38.386Z,3.75
2023-04-19T04:13:25.435Z,3.82
2023-04-19T04:16:21.926Z,3.90
2023-04-19T04:19:09.871Z,3.99
2023-04-19T04:21:59.724Z,3.98
2023-04-19T04:24:47.422Z,4.13
2023-04-19T04:27:56.306Z,4.21
2023-04-19T04:30:45.509Z,4.27
2023-04-19T04:33:32.186Z,4.32
2023-04-19T04:36:29.446Z,4.38
2023-04-19T04:39:17.661Z,4.43
2023-04-19T04:42:07.436Z,4.45
2023-04-19T04:44:57.843Z,4.49
2023-04-19T04:47:45.805Z,4.52
2023-04-19T04:50:32.778Z,4.57
2023-04-19T04:53:21.820Z,4.62
2023-04-19T04:56:08.877Z,4.67
2023-04-19T04:58:56.506Z,4.75
2023-04-19T05:01:48.604Z,4.80
2023-04-19T05:04:35.735Z,4.87
2023-04-19T05:07:26.447Z,4.92
2023-04-19T05:10:13.588Z,4.99
2023-04-19T05:13:05.382Z,4.98
2023-04-19T05:15:52.472Z,5.01
2023-04-19T05:18:41.632Z,5.05
2023-04-19T05:21:28.454Z,5.10
2023-04-19T05:24:15.848Z,5.12
2023-04-19T05:27:04.606Z,5.17
2023-04-19T05:29:53.236Z,5.22
2023-04-19T05:32:42.849Z,5.34
2023-04-19T05:35:33.717Z,5.45
2023-04-19T05:38:26.988Z,5.56
2023-04-19T05:41:20.444Z,5.70
2023-04-19T05:44:09.430Z,5.78
2023-04-19T05:46:56.060Z,5.79
2023-04-19T05:50:05.386Z,5.81
2023-04-19T05:52:56.039Z,5.85
2023-04-19T05:55:48.309Z,5.94
2023-04-19T05:58:35.208Z,6.01
2023-04-19T06:01:23.624Z,6.09
2023-04-19T06:04:11.039Z,6.15
2023-04-19T06:06:59.344Z,6.20
2023-04-19T06:09:45.995Z,6.22
2023-04-19T06:12:32.415Z,6.26
2023-04-19T06:15:21.925Z,6.31
2023-04-19T06:18:18.653Z,6.36
2023-04-19T06:21:06.384Z,6.46
2023-04-19T06:23:56.453Z,6.47
2023-04-19T06:26:44.041Z,6.71
2023-04-19T06:29:30.269Z,6.80
2023-04-19T06:32:17.212Z,6.91
2023-04-19T06:35:05.885Z,7.14
2023-04-19T06:37:52.266Z,7.54
2023-04-19T06:40:38.563Z,7.70
2023-04-19T06:43:27.238Z,7.77
2023-04-19T06:46:14.536Z,7.83
2023-04-19T06:49:01.706Z,8.05
2023-04-19T06:51:48.975Z,8.22
2023-04-19T06:54:35.763Z,8.70
2023-04-19T06:57:25.519Z,9.19
2023-04-19T07:00:13.238Z,9.87
2023-04-19T07:03:00.927Z,10.41
2023-04-19T07:05:52.177Z,11.16
2023-04-19T07:08:48.816Z,12.08
2023-04-19T07:11:36.166Z,12.40
2023-04-19T07:14:23.338Z,12.20
2023-04-19T07:17:09.490Z,12.20
2023-04-19T07:19:55.923Z,12.46
2023-04-19T07:22:42.499Z,12.36
2023-04-19T07:25:28.882Z,12.26
2023-04-19T07:28:15.574Z,12.75
2023-04-19T07:31:02.222Z,12.59
2023-04-19T07:33:50.361Z,12.01
2023-04-19T07:36:37.259Z,11.47
2023-04-19T07:39:24.352Z,11.19
2023-04-19T07:42:11.557Z,11.42
2023-04-19T07:44:59.028Z,11.89
2023-04-19T07:47:45.918Z,12.91
2023-04-19T07:50:34.389Z,14.24
2023-04-19T07:53:20.763Z,14.75
2023-04-19T07:56:08.480Z,14.40
2023-04-19T07:59:06.968Z,13.94
2023-04-19T08:01:55.344Z,13.60
2023-04-19T08:04:42.567Z,13.35
2023-04-19T08:07:33.037Z,12.78
2023-04-19T08:10:20.710Z,12.29
2023-04-19T08:13:08.622Z,11.58
2023-04-19T08:18:45.700Z,10.06
2023-04-19T08:21:40.677Z,9.42
2023-04-19T08:24:28.233Z,8.78
2023-04-19T08:27:15.116Z,8.26
2023-04-19T08:30:02.895Z,7.85
2023-04-19T08:32:49.546Z,7.57
2023-04-19T08:35:40.781Z,7.45
2023-04-19T08:38:27.052Z,7.22
2023-04-19T08:41:14.825Z,6.99
2023-04-19T08:44:02.978Z,6.78
2023-04-19T08:46:50.062Z,6.65
2023-04-19T08:49:41.371Z,6.52
2023-04-19T08:52:32.931Z,6.36
2023-04-19T08:55:20.562Z,6.27
2023-04-19T08:58:12.297Z,6.21
2023-04-19T09:01:07.793Z,6.10
2023-04-19T09:04:01.361Z,6.06
2023-04-19T09:06:55.188Z,6.12
2023-04-19T09:09:55.674Z,6.19
2023-04-19T09:13:05.576Z,6.16
2023-04-19T09:15:56.699Z,6.16
2023-04-19T09:19:11.409Z,6.18
2023-04-19T09:22:15.352Z,6.21
2023-04-19T09:28:16.426Z,6.11
2023-04-19T09:31:38.897Z,6.00
2023-04-19T09:34:23.982Z,5.90
2023-04-19T09:37:18.904Z,5.76
2023-04-19T09:40:25.244Z,5.58
2023-04-19T09:46:04.268Z,5.37
2023-04-19T09:48:51.254Z,5.24
2023-04-19T09:51:41.960Z,5.08
2023-04-19T09:54:29.395Z,4.92
2023-04-19T09:57:16.388Z,4.87
2023-04-19T10:00:06.878Z,4.85
2023-04-19T10:03:00.031Z,4.84
2023-04-19T10:05:46.552Z,4.78
2023-04-19T10:08:33.199Z,4.73
2023-04-19T10:11:26.778Z,4.66
2023-04-19T10:14:16.055Z,4.56
2023-04-19T10:17:02.855Z,4.47
2023-04-19T10:20:06.110Z,4.36
2023-04-19T10:22:52.706Z,4.29
2023-04-19T10:25:40.384Z,4.23
2023-04-19T10:28:30.414Z,4.16
2023-04-19T10:31:23.151Z,4.11
2023-04-19T10:34:12.490Z,4.07
2023-04-19T10:36:59.149Z,4.06
2023-04-19T10:39:45.458Z,4.07
2023-04-19T10:43:13.633Z,4.08
2023-04-19T10:46:15.343Z,4.09
2023-04-19T10:49:04.654Z,4.08
2023-04-19T10:51:57.521Z,4.05
2023-04-19T10:54:44.751Z,4.03
2023-04-19T10:58:08.359Z,3.99
2023-04-19T11:01:39.909Z,3.96
2023-04-19T11:04:29.420Z,3.98
2023-04-19T11:07:20.849Z,3.93
2023-04-19T11:10:09.529Z,3.94
2023-04-19T11:12:57.247Z,3.93
2023-04-19T11:15:43.620Z,3.95
2023-04-19T11:18:30.589Z,3.98
2023-04-19T11:21:20.835Z,4.04
2023-04-19T11:24:07.949Z,4.08
2023-04-19T11:26:57.120Z,4.12
2023-04-19T11:29:43.961Z,4.15
2023-04-19T11:32:31.674Z,4.19
2023-04-19T11:35:21.280Z,4.26
2023-04-19T11:38:49.637Z,4.34
2023-04-19T11:41:39.445Z,4.41
2023-04-19T11:44:26.437Z,4.49
2023-04-19T11:47:12.943Z,4.55
2023-04-19T11:50:37.610Z,4.64
2023-04-19T11:53:26.722Z,4.76
2023-04-19T11:56:14.700Z,4.85
2023-04-19T11:59:01.202Z,4.93
2023-04-19T12:01:47.394Z,4.98
2023-04-19T12:04:34.555Z,5.05
2023-04-19T12:07:21.485Z,5.11
2023-04-19T12:10:11.731Z,5.15
2023-04-19T12:12:58.909Z,5.20
2023-04-19T12:15:46.321Z,5.25
2023-04-19T12:18:51.037Z,5.31
2023-04-19T12:21:37.613Z,5.38
2023-04-19T12:24:23.695Z,5.45
2023-04-19T12:27:10.963Z,5.53
2023-04-19T12:29:58.507Z,5.57
2023-04-19T12:32:44.638Z,5.61
2023-04-19T12:35:33.545Z,5.76
2023-04-19T12:38:19.804Z,5.86
2023-04-19T12:41:06.189Z,5.96
2023-04-19T12:43:52.637Z,6.11
2023-04-19T12:46:38.944Z,6.32
2023-04-19T12:49:25.226Z,6.62
2023-04-19T12:52:11.472Z,6.86
2023-04-19T12:54:57.911Z,7.01
2023-04-19T12:57:44.193Z,7.14
2023-04-19T13:00:30.535Z,7.23
2023-04-19T13:03:16.841Z,7.19
2023-04-19T13:06:04.060Z,7.21
2023-04-19T13:08:51.013Z,7.29
2023-04-19T13:11:37.499Z,7.56
2023-04-19T13:14:28.476Z,7.76
2023-04-19T13:17:15.061Z,7.84
2023-04-19T13:20:01.511Z,7.94
2023-04-19T13:22:47.636Z,8.09
2023-04-19T13:25:35.116Z,8.22
2023-04-19T13:28:22.020Z,8.31
2023-04-19T13:31:08.457Z,8.29
2023-04-19T13:33:55.085Z,8.35
2023-04-19T13:36:41.676Z,8.48
2023-04-19T13:39:28.193Z,8.65
2023-04-19T13:42:15.154Z,8.78
2023-04-19T13:45:02.702Z,8.97
2023-04-19T13:47:51.241Z,9.18
2023-04-19T13:50:39.019Z,9.33
2023-04-19T13:53:27.021Z,9.44
2023-04-19T13:56:14.600Z,9.46
2023-04-19T13:59:00.724Z,9.40
2023-04-19T14:01:47.166Z,9.38
2023-04-19T14:04:33.529Z,9.42
2023-04-19T14:07:23.075Z,9.46
2023-04-19T14:10:26.682Z,9.52
2023-04-19T14:13:41.230Z,9.60
2023-04-19T14:16:41.591Z,9.72
2023-04-19T14:19:39.411Z,9.82
2023-04-19T14:22:38.533Z,9.93
2023-04-19T14:25:29.876Z,9.91
2023-04-19T14:28:17.662Z,9.99
2023-04-19T14:31:04.154Z,10.11
2023-04-19T14:33:52.961Z,10.22
2023-04-19T14:36:46.306Z,10.33
2023-04-19T14:39:33.948Z,10.36
2023-04-19T14:42:23.126Z,10.35
2023-04-19T14:45:09.971Z,10.42
2023-04-19T14:47:56.597Z,10.40
2023-04-19T14:50:43.146Z,10.38
2023-04-19T14:53:29.891Z,10.36
2023-04-19T14:56:17.011Z,10.32
2023-04-19T14:59:09.273Z,10.30
2023-04-19T15:01:58.708Z,10.34
2023-04-19T15:04:45.970Z,10.35
2023-04-19T15:07:32.482Z,10.35
2023-04-19T15:10:19.664Z,10.49
2023-04-19T15:13:05.927Z,10.51
2023-04-19T15:15:52.472Z,10.41
2023-04-19T15:18:39.253Z,10.36
2023-04-19T15:21:27.763Z,10.26
2023-04-19T15:24:14.729Z,10.19
2023-04-19T15:27:03.502Z,10.16
2023-04-19T15:29:49.997Z,10.14
2023-04-19T15:32:38.060Z,10.15
2023-04-19T15:35:24.999Z,10.10
2023-04-19T15:38:11.722Z,9.91
2023-04-19T15:41:00.562Z,9.69
2023-04-19T15:43:47.722Z,9.57
2023-04-19T15:46:35.180Z,9.44
2023-04-19T15:49:22.143Z,9.41
2023-04-19T15:52:08.717Z,9.38
2023-04-19T15:54:55.421Z,9.35
2023-04-19T15:57:43.361Z,9.33
2023-04-19T16:00:30.481Z,9.31
2023-04-19T16:03:19.044Z,9.25
2023-04-19T16:06:05.307Z,9.20
2023-04-19T16:08:52.287Z,9.18
2023-04-19T16:11:39.388Z,9.19
2023-04-19T16:14:25.896Z,9.19
2023-04-19T16:17:12.888Z,9.20
2023-04-19T16:20:00.378Z,9.19
2023-04-19T16:22:49.078Z,9.15
2023-04-19T16:25:35.424Z,9.13
2023-04-19T16:28:22.701Z,9.11
2023-04-19T16:31:10.543Z,9.04
2023-04-19T16:33:57.141Z,8.97
2023-04-19T16:36:46.916Z,8.91
2023-04-19T16:39:33.090Z,8.87
2023-04-19T16:42:19.240Z,8.81
2023-04-19T16:45:08.669Z,8.74
2023-04-19T16:47:54.861Z,8.61
2023-04-19T16:50:41.388Z,8.50
2023-04-19T16:53:27.788Z,8.40
2023-04-19T16:56:17.080Z,8.31
2023-04-19T16:59:03.323Z,8.23
2023-04-19T17:01:53.343Z,8.18
2023-04-19T17:04:42.396Z,8.12
2023-04-19T17:07:28.959Z,8.06
2023-04-19T17:10:15.878Z,7.96
2023-04-19T17:13:02.700Z,7.86
2023-04-19T17:15:50.182Z,7.77
2023-04-19T17:18:38.871Z,7.70
2023-04-19T17:21:25.497Z,7.64
2023-04-19T17:24:12.916Z,7.58
2023-04-19T17:27:00.305Z,7.53
2023-04-19T17:29:46.535Z,7.45
2023-04-19T17:32:33.015Z,7.42
2023-04-19T17:35:19.597Z,7.41
2023-04-19T17:38:05.894Z,7.41
2023-04-19T17:40:53.371Z,7.36
2023-04-19T17:43:39.677Z,7.33
2023-04-19T17:46:25.952Z,7.27
2023-04-19T17:49:12.931Z,7.21
2023-04-19T17:51:59.745Z,7.16
2023-04-19T17:54:46.046Z,7.10
2023-04-19T17:57:33.638Z,7.05
2023-04-19T18:00:20.156Z,7.02
2023-04-19T18:03:10.272Z,6.99
2023-04-19T18:05:56.717Z,7.01
2023-04-19T18:08:45.416Z,7.05
2023-04-19T18:11:31.751Z,7.07
2023-04-19T18:14:18.400Z,7.11
2023-04-19T18:17:05.587Z,7.13
2023-04-19T18:19:52.118Z,7.15
2023-04-19T18:22:40.077Z,7.17
2023-04-19T18:25:26.660Z,7.16
2023-04-19T18:28:13.875Z,7.16
2023-04-19T18:31:01.433Z,7.15
2023-04-19T18:33:48.788Z,7.15
2023-04-19T18:36:35.226Z,7.15
2023-04-19T18:39:22.952Z,7.17
2023-04-19T18:42:14.081Z,7.21
2023-04-19T18:45:01.889Z,7.22
2023-04-19T18:47:48.486Z,7.20
2023-04-19T18:50:37.985Z,7.18
2023-04-19T18:53:28.007Z,7.18
2023-04-19T18:56:14.583Z,7.15
2023-04-19T18:59:01.646Z,7.14
2023-04-19T19:01:48.798Z,7.08
2023-04-19T19:04:51.305Z,7.05
2023-04-19T19:07:44.144Z,7.08
2023-04-19T19:11:06.680Z,7.15
2023-04-19T19:13:39.331Z,7.22
2023-04-19T19:16:25.592Z,7.28
2023-04-19T19:19:12.409Z,7.33
2023-04-19T19:21:59.034Z,7.37
2023-04-19T19:24:45.830Z,7.38
2023-04-19T19:27:35.646Z,7.38
2023-04-19T19:30:25.041Z,7.38
2023-04-19T19:33:12.815Z,7.33
2023-04-19T19:35:59.257Z,7.33
2023-04-19T19:38:46.294Z,7.31
2023-04-19T19:42:03.373Z,7.26
2023-04-19T19:44:42.035Z,7.27
2023-04-19T19:47:34.665Z,7.25
2023-04-19T19:53:11.234Z,7.20
2023-04-19T19:55:59.381Z,7.19
2023-04-19T19:58:50.098Z,7.20
2023-04-19T20:01:38.085Z,7.22
2023-04-19T20:04:25.983Z,7.22
2023-04-19T20:10:02.484Z,7.22
2023-04-19T20:12:48.380Z,7.22
2023-04-19T20:15:37.382Z,7.21
2023-04-19T20:18:23.551Z,7.20
2023-04-19T20:21:09.758Z,7.19
2023-04-19T20:23:56.583Z,7.17
2023-04-19T20:26:43.660Z,7.18
2023-04-19T20:29:31.433Z,7.17
2023-04-19T20:32:18.226Z,7.18
2023-04-19T20:35:09.489Z,7.18
2023-04-19T20:38:02.101Z,7.19
2023-04-19T20:40:48.565Z,7.15
2023-04-19T20:43:34.817Z,7.09
2023-04-19T20:46:21.402Z,7.00
2023-04-19T20:49:08.363Z,6.96
2023-04-19T20:51:55.886Z,6.91
2023-04-19T20:54:42.536Z,6.87
2023-04-19T20:57:28.758Z,6.84
2023-04-19T21:00:16.195Z,6.86
2023-04-19T21:03:05.453Z,6.91
2023-04-19T21:06:00.414Z,6.96
2023-04-19T21:08:51.317Z,7.02
2023-04-19T21:11:37.785Z,7.09
2023-04-19T21:14:24.400Z,7.14
2023-04-19T21:17:11.846Z,7.18
2023-04-19T21:19:58.334Z,7.19
2023-04-19T21:22:46.515Z,7.19
2023-04-19T21:25:32.986Z,7.21
2023-04-19T21:28:19.910Z,7.24
2023-04-19T21:31:09.311Z,7.27
2023-04-19T21:33:55.768Z,7.29
2023-04-19T21:36:42.094Z,7.31
2023-04-19T21:39:28.468Z,7.30
2023-04-19T21:42:14.841Z,7.29
2023-04-19T21:45:02.085Z,7.30
2023-04-19T21:47:48.577Z,7.31
2023-04-19T21:50:34.724Z,7.32
2023-04-19T21:53:21.063Z,7.35
2023-04-19T21:56:08.730Z,7.36
2023-04-19T21:58:55.105Z,7.37
2023-04-19T22:01:42.522Z,7.37
2023-04-19T22:04:30.253Z,7.37
2023-04-19T22:07:19.173Z,7.35
2023-04-19T22:10:07.715Z,7.36
2023-04-19T22:12:58.404Z,7.36
2023-04-19T22:15:45.447Z,7.36
2023-04-19T22:18:34.043Z,7.35
2023-04-19T22:21:24.127Z,7.34
2023-04-19T22:24:13.075Z,7.31
2023-04-19T22:27:01.302Z,7.30
2023-04-19T22:29:48.261Z,7.29
2023-04-19T22:32:38.351Z,7.27
2023-04-19T22:35:25.444Z,7.25
2023-04-19T22:38:11.778Z,7.20
2023-04-19T22:40:58.283Z,7.20
2023-04-19T22:43:44.897Z,7.18
2023-04-19T22:46:32.342Z,7.11
2023-04-19T22:49:21.556Z,7.11
2023-04-19T22:52:08.486Z,7.11
2023-04-19T22:54:54.999Z,7.09
2023-04-19T22:57:42.511Z,7.06
2023-04-19T23:00:28.935Z,7.05
2023-04-19T23:03:16.656Z,7.05
2023-04-19T23:06:03.885Z,7.08
2023-04-19T23:08:51.925Z,7.11
2023-04-19T23:11:40.147Z,7.11
2023-04-19T23:14:28.752Z,7.10
2023-04-19T23:17:16.802Z,7.10
2023-04-19T23:20:04.935Z,7.08
2023-04-19T23:22:52.821Z,7.08
2023-04-19T23:25:40.653Z,7.07
2023-04-19T23:28:27.451Z,7.08
2023-04-19T23:31:14.809Z,7.09
2023-04-19T23:34:02.299Z,7.12
2023-04-19T23:36:48.988Z,7.15
2023-04-19T23:39:35.642Z,7.16
2023-04-19T23:42:22.390Z,7.17
2023-04-19T23:45:09.750Z,7.15
2023-04-19T23:47:57.709Z,7.13
2023-04-19T23:50:46.980Z,7.09
2023-04-19T23:53:34.578Z,7.05
2023-04-19T23:56:21.624Z,7.04
2023-04-19T23:59:08.286Z,7.04
